sensor_id;sensor_type;location;lat;lon;timestamp;P1;durP1;ratioP1;P2;durP2;ratioP2
15915;SDS011;8057;47.830;-3.870;2023-04-25T00:03:50;8.90;;;4.10;;
15915;SDS011;8057;47.830;-3.870;2023-04-25T00:07:59;8.20;;;4.27;;
15915;SDS011;8057;47.830;-3.870;2023-04-25T00:12:08;9.37;;;4.67;;
15915;SDS011;8057;47.830;-3.870;2023-04-25T00:16:19;9.30;;;4.23;;
15915;SDS011;8057;47.830;-3.870;2023-04-25T00:20:28;12.70;;;4.67;;
15915;SDS011;8057;47.830;-3.870;2023-04-25T00:24:38;7.53;;;3.70;;
15915;SDS011;8057;47.830;-3.870;2023-04-25T00:28:47;6.83;;;3.70;;
15915;SDS011;8057;47.830;-3.870;2023-04-25T00:32:57;7.03;;;3.93;;
15915;SDS011;8057;47.830;-3.870;2023-04-25T00:37:07;7.47;;;3.40;;
15915;SDS011;8057;47.830;-3.870;2023-04-25T00:41:16;6.00;;;3.20;;
15915;SDS011;8057;47.830;-3.870;2023-04-25T00:45:27;7.97;;;4.30;;
15915;SDS011;8057;47.830;-3.870;2023-04-25T00:49:38;14.93;;;4.90;;
15915;SDS011;8057;47.830;-3.870;2023-04-25T00:53:47;9.83;;;4.23;;
15915;SDS011;8057;47.830;-3.870;2023-04-25T00:57:58;9.30;;;4.17;;
15915;SDS011;8057;47.830;-3.870;2023-04-25T01:02:08;9.37;;;4.10;;
15915;SDS011;8057;47.830;-3.870;2023-04-25T01:06:18;9.67;;;5.10;;
15915;SDS011;8057;47.830;-3.870;2023-04-25T01:10:29;9.17;;;4.90;;
15915;SDS011;8057;47.830;-3.870;2023-04-25T01:14:38;6.00;;;3.73;;
15915;SDS011;8057;47.830;-3.870;2023-04-25T01:18:47;5.53;;;4.00;;
15915;SDS011;8057;47.830;-3.870;2023-04-25T01:22:58;9.57;;;4.23;;
15915;SDS011;8057;47.830;-3.870;2023-04-25T01:27:09;9.27;;;4.13;;
15915;SDS011;8057;47.830;-3.870;2023-04-25T01:31:18;9.60;;;4.17;;
15915;SDS011;8057;47.830;-3.870;2023-04-25T01:35:28;9.13;;;4.43;;
15915;SDS011;8057;47.830;-3.870;2023-04-25T01:39:38;5.43;;;4.23;;
15915;SDS011;8057;47.830;-3.870;2023-04-25T01:43:47;9.40;;;4.73;;
15915;SDS011;8057;47.830;-3.870;2023-04-25T01:47:57;8.40;;;4.53;;
15915;SDS011;8057;47.830;-3.870;2023-04-25T01:52:06;9.53;;;4.73;;
15915;SDS011;8057;47.830;-3.870;2023-04-25T01:56:17;9.00;;;4.80;;
15915;SDS011;8057;47.830;-3.870;2023-04-25T02:00:27;12.70;;;5.10;;
15915;SDS011;8057;47.830;-3.870;2023-04-25T02:04:36;11.30;;;4.27;;
15915;SDS011;8057;47.830;-3.870;2023-04-25T02:08:45;6.80;;;3.60;;
15915;SDS011;8057;47.830;-3.870;2023-04-25T02:12:56;7.90;;;4.23;;
15915;SDS011;8057;47.830;-3.870;2023-04-25T02:17:05;9.83;;;4.60;;
15915;SDS011;8057;47.830;-3.870;2023-04-25T02:21:15;6.63;;;4.37;;
15915;SDS011;8057;47.830;-3.870;2023-04-25T02:25:24;8.33;;;5.07;;
15915;SDS011;8057;47.830;-3.870;2023-04-25T02:29:35;8.90;;;5.40;;
15915;SDS011;8057;47.830;-3.870;2023-04-25T02:33:44;8.50;;;4.80;;
15915;SDS011;8057;47.830;-3.870;2023-04-25T02:37:54;7.97;;;4.90;;
15915;SDS011;8057;47.830;-3.870;2023-04-25T02:42:03;6.73;;;4.90;;
15915;SDS011;8057;47.830;-3.870;2023-04-25T02:46:14;8.13;;;4.43;;
15915;SDS011;8057;47.830;-3.870;2023-04-25T02:50:34;5.87;;;4.13;;
15915;SDS011;8057;47.830;-3.870;2023-04-25T02:54:43;5.57;;;4.23;;
15915;SDS011;8057;47.830;-3.870;2023-04-25T02:58:52;5.23;;;3.80;;
15915;SDS011;8057;47.830;-3.870;2023-04-25T03:03:03;7.23;;;4.23;;
15915;SDS011;8057;47.830;-3.870;2023-04-25T03:07:12;8.60;;;5.40;;
15915;SDS011;8057;47.830;-3.870;2023-04-25T03:11:21;5.97;;;3.90;;
15915;SDS011;8057;47.830;-3.870;2023-04-25T03:15:30;8.80;;;4.47;;
15915;SDS011;8057;47.830;-3.870;2023-04-25T03:19:40;11.40;;;5.47;;
15915;SDS011;8057;47.830;-3.870;2023-04-25T03:23:50;6.83;;;4.57;;
15915;SDS011;8057;47.830;-3.870;2023-04-25T03:27:59;7.27;;;4.47;;
15915;SDS011;8057;47.830;-3.870;2023-04-25T03:32:08;5.57;;;4.80;;
15915;SDS011;8057;47.830;-3.870;2023-04-25T03:36:19;7.90;;;5.57;;
15915;SDS011;8057;47.830;-3.870;2023-04-25T03:40:28;7.57;;;5.13;;
15915;SDS011;8057;47.830;-3.870;2023-04-25T03:44:37;8.37;;;5.17;;
15915;SDS011;8057;47.830;-3.870;2023-04-25T03:48:46;6.40;;;4.60;;
15915;SDS011;8057;47.830;-3.870;2023-04-25T03:52:57;7.63;;;4.90;;
15915;SDS011;8057;47.830;-3.870;2023-04-25T03:57:06;10.83;;;6.10;;
15915;SDS011;8057;47.830;-3.870;2023-04-25T04:01:15;6.70;;;5.10;;
15915;SDS011;8057;47.830;-3.870;2023-04-25T04:05:24;8.50;;;5.60;;
15915;SDS011;8057;47.830;-3.870;2023-04-25T04:09:35;9.60;;;5.83;;
15915;SDS011;8057;47.830;-3.870;2023-04-25T04:13:44;8.47;;;6.10;;
15915;SDS011;8057;47.830;-3.870;2023-04-25T04:17:54;10.43;;;5.97;;
15915;SDS011;8057;47.830;-3.870;2023-04-25T04:22:03;5.93;;;4.97;;
15915;SDS011;8057;47.830;-3.870;2023-04-25T04:26:14;9.67;;;5.83;;
15915;SDS011;8057;47.830;-3.870;2023-04-25T04:30:23;7.90;;;6.13;;
15915;SDS011;8057;47.830;-3.870;2023-04-25T04:34:36;11.63;;;6.00;;
15915;SDS011;8057;47.830;-3.870;2023-04-25T04:38:45;6.07;;;5.33;;
15915;SDS011;8057;47.830;-3.870;2023-04-25T04:42:56;7.87;;;5.00;;
15915;SDS011;8057;47.830;-3.870;2023-04-25T04:47:05;7.50;;;5.03;;
15915;SDS011;8057;47.830;-3.870;2023-04-25T04:51:14;6.87;;;5.57;;
15915;SDS011;8057;47.830;-3.870;2023-04-25T04:55:23;7.57;;;5.80;;
15915;SDS011;8057;47.830;-3.870;2023-04-25T04:59:34;8.83;;;5.80;;
15915;SDS011;8057;47.830;-3.870;2023-04-25T05:03:43;10.80;;;5.70;;
15915;SDS011;8057;47.830;-3.870;2023-04-25T05:07:52;10.63;;;6.37;;
15915;SDS011;8057;47.830;-3.870;2023-04-25T05:12:01;10.30;;;5.80;;
15915;SDS011;8057;47.830;-3.870;2023-04-25T05:16:12;8.93;;;6.10;;
15915;SDS011;8057;47.830;-3.870;2023-04-25T05:20:21;10.97;;;5.83;;
15915;SDS011;8057;47.830;-3.870;2023-04-25T05:24:30;8.93;;;5.50;;
15915;SDS011;8057;47.830;-3.870;2023-04-25T05:28:40;7.73;;;5.67;;
15915;SDS011;8057;47.830;-3.870;2023-04-25T05:32:51;9.47;;;5.33;;
15915;SDS011;8057;47.830;-3.870;2023-04-25T05:37:00;9.30;;;5.10;;
15915;SDS011;8057;47.830;-3.870;2023-04-25T05:41:09;7.00;;;4.83;;
15915;SDS011;8057;47.830;-3.870;2023-04-25T05:45:18;7.53;;;5.23;;
15915;SDS011;8057;47.830;-3.870;2023-04-25T05:49:28;5.03;;;4.53;;
15915;SDS011;8057;47.830;-3.870;2023-04-25T05:53:37;8.13;;;5.77;;
15915;SDS011;8057;47.830;-3.870;2023-04-25T05:57:46;6.87;;;4.70;;
15915;SDS011;8057;47.830;-3.870;2023-04-25T06:01:57;5.87;;;4.80;;
15915;SDS011;8057;47.830;-3.870;2023-04-25T06:06:09;5.17;;;4.63;;
15915;SDS011;8057;47.830;-3.870;2023-04-25T06:10:19;7.53;;;4.93;;
15915;SDS011;8057;47.830;-3.870;2023-04-25T06:14:28;9.47;;;4.87;;
15915;SDS011;8057;47.830;-3.870;2023-04-25T06:18:37;5.53;;;4.40;;
15915;SDS011;8057;47.830;-3.870;2023-04-25T06:22:48;4.50;;;4.07;;
15915;SDS011;8057;47.830;-3.870;2023-04-25T06:26:57;6.27;;;4.53;;
15915;SDS011;8057;47.830;-3.870;2023-04-25T06:31:22;5.37;;;4.30;;
15915;SDS011;8057;47.830;-3.870;2023-04-25T06:37:09;7.07;;;4.07;;
15915;SDS011;8057;47.830;-3.870;2023-04-25T06:47:07;7.20;;;5.33;;
15915;SDS011;8057;47.830;-3.870;2023-04-25T06:52:10;6.33;;;4.63;;
15915;SDS011;8057;47.830;-3.870;2023-04-25T07:01:38;5.63;;;3.80;;
15915;SDS011;8057;47.830;-3.870;2023-04-25T07:05:47;7.23;;;4.33;;
15915;SDS011;8057;47.830;-3.870;2023-04-25T15:05:55;4.47;;;2.57;;
15915;SDS011;8057;47.830;-3.870;2023-04-25T15:10:05;4.93;;;2.60;;
15915;SDS011;8057;47.830;-3.870;2023-04-25T15:14:20;5.03;;;2.83;;
15915;SDS011;8057;47.830;-3.870;2023-04-25T15:18:30;4.17;;;2.57;;
15915;SDS011;8057;47.830;-3.870;2023-04-25T15:22:42;5.63;;;2.83;;
15915;SDS011;8057;47.830;-3.870;2023-04-25T15:26:52;5.17;;;2.53;;
15915;SDS011;8057;47.830;-3.870;2023-04-25T15:31:01;5.17;;;3.13;;
15915;SDS011;8057;47.830;-3.870;2023-04-25T15:35:10;4.57;;;3.00;;
15915;SDS011;8057;47.830;-3.870;2023-04-25T15:39:21;5.10;;;3.00;;
15915;SDS011;8057;47.830;-3.870;2023-04-25T15:43:30;5.93;;;3.33;;
15915;SDS011;8057;47.830;-3.870;2023-04-25T15:47:42;6.03;;;3.73;;
15915;SDS011;8057;47.830;-3.870;2023-04-25T15:51:52;5.50;;;2.83;;
15915;SDS011;8057;47.830;-3.870;2023-04-25T15:56:03;4.60;;;3.40;;
15915;SDS011;8057;47.830;-3.870;2023-04-25T16:00:12;3.63;;;3.03;;
15915;SDS011;8057;47.830;-3.870;2023-04-25T16:04:23;5.87;;;2.90;;
15915;SDS011;8057;47.830;-3.870;2023-04-25T16:08:36;6.70;;;3.20;;
15915;SDS011;8057;47.830;-3.870;2023-04-25T16:12:47;7.00;;;3.30;;
15915;SDS011;8057;47.830;-3.870;2023-04-25T16:16:57;3.33;;;2.80;;
15915;SDS011;8057;47.830;-3.870;2023-04-25T16:21:06;6.10;;;3.13;;
15915;SDS011;8057;47.830;-3.870;2023-04-25T16:25:15;6.73;;;2.97;;
15915;SDS011;8057;47.830;-3.870;2023-04-25T16:29:26;6.67;;;2.80;;
15915;SDS011;8057;47.830;-3.870;2023-04-25T16:33:35;5.30;;;3.03;;
15915;SDS011;8057;47.830;-3.870;2023-04-25T16:37:44;3.87;;;2.37;;
15915;SDS011;8057;47.830;-3.870;2023-04-25T16:41:54;3.67;;;2.50;;
15915;SDS011;8057;47.830;-3.870;2023-04-25T16:46:04;6.83;;;2.80;;
15915;SDS011;8057;47.830;-3.870;2023-04-25T16:50:14;4.17;;;2.70;;
15915;SDS011;8057;47.830;-3.870;2023-04-25T16:54:29;6.10;;;3.33;;
15915;SDS011;8057;47.830;-3.870;2023-04-25T16:58:40;5.07;;;2.70;;
15915;SDS011;8057;47.830;-3.870;2023-04-25T17:02:51;6.50;;;3.23;;
15915;SDS011;8057;47.830;-3.870;2023-04-25T17:07:00;5.07;;;3.00;;
15915;SDS011;8057;47.830;-3.870;2023-04-25T17:11:11;6.40;;;2.70;;
15915;SDS011;8057;47.830;-3.870;2023-04-25T17:15:21;5.83;;;2.60;;
15915;SDS011;8057;47.830;-3.870;2023-04-25T17:24:32;4.97;;;2.50;;
15915;SDS011;8057;47.830;-3.870;2023-04-25T17:28:49;4.50;;;2.47;;
15915;SDS011;8057;47.830;-3.870;2023-04-25T17:32:59;5.40;;;2.83;;
15915;SDS011;8057;47.830;-3.870;2023-04-25T17:37:09;3.17;;;2.47;;
15915;SDS011;8057;47.830;-3.870;2023-04-25T17:45:50;3.50;;;2.13;;
15915;SDS011;8057;47.830;-3.870;2023-04-25T17:50:01;4.77;;;2.40;;
15915;SDS011;8057;47.830;-3.870;2023-04-25T17:54:13;4.30;;;2.03;;
15915;SDS011;8057;47.830;-3.870;2023-04-25T17:58:25;2.60;;;2.17;;
15915;SDS011;8057;47.830;-3.870;2023-04-25T18:02:36;3.33;;;1.90;;
15915;SDS011;8057;47.830;-3.870;2023-04-25T18:15:42;4.87;;;2.20;;
15915;SDS011;8057;47.830;-3.870;2023-04-25T18:25:13;3.60;;;2.20;;
15915;SDS011;8057;47.830;-3.870;2023-04-25T18:29:24;5.97;;;2.37;;
15915;SDS011;8057;47.830;-3.870;2023-04-25T18:33:41;2.97;;;1.93;;
15915;SDS011;8057;47.830;-3.870;2023-04-25T18:38:00;5.00;;;1.93;;
15915;SDS011;8057;47.830;-3.870;2023-04-25T18:42:20;3.20;;;1.80;;
15915;SDS011;8057;47.830;-3.870;2023-04-25T18:46:31;2.97;;;1.90;;
15915;SDS011;8057;47.830;-3.870;2023-04-25T18:50:46;5.23;;;2.03;;
15915;SDS011;8057;47.830;-3.870;2023-04-25T18:54:56;2.47;;;1.67;;
15915;SDS011;8057;47.830;-3.870;2023-04-25T18:59:06;4.97;;;1.80;;
15915;SDS011;8057;47.830;-3.870;2023-04-25T19:03:33;4.50;;;2.00;;
15915;SDS011;8057;47.830;-3.870;2023-04-25T19:07:43;4.23;;;2.10;;
15915;SDS011;8057;47.830;-3.870;2023-04-25T19:11:59;3.07;;;1.90;;
15915;SDS011;8057;47.830;-3.870;2023-04-25T19:16:10;4.83;;;2.30;;
15915;SDS011;8057;47.830;-3.870;2023-04-25T19:20:27;4.23;;;2.60;;
15915;SDS011;8057;47.830;-3.870;2023-04-25T19:24:39;3.73;;;2.07;;
15915;SDS011;8057;47.830;-3.870;2023-04-25T19:29:14;3.57;;;2.30;;
15915;SDS011;8057;47.830;-3.870;2023-04-25T19:33:28;4.40;;;2.07;;
15915;SDS011;8057;47.830;-3.870;2023-04-25T19:37:38;3.70;;;2.03;;
15915;SDS011;8057;47.830;-3.870;2023-04-25T19:41:53;4.03;;;1.77;;
15915;SDS011;8057;47.830;-3.870;2023-04-25T19:46:09;5.50;;;2.40;;
15915;SDS011;8057;47.830;-3.870;2023-04-25T19:50:21;2.53;;;1.90;;
15915;SDS011;8057;47.830;-3.870;2023-04-25T19:54:39;3.60;;;1.90;;
15915;SDS011;8057;47.830;-3.870;2023-04-25T19:58:59;2.37;;;1.90;;
15915;SDS011;8057;47.830;-3.870;2023-04-25T20:03:16;5.80;;;2.50;;
15915;SDS011;8057;47.830;-3.870;2023-04-25T20:07:28;4.03;;;2.67;;
15915;SDS011;8057;47.830;-3.870;2023-04-25T20:11:38;6.33;;;2.80;;
15915;SDS011;8057;47.830;-3.870;2023-04-25T20:15:48;6.70;;;2.90;;
15915;SDS011;8057;47.830;-3.870;2023-04-25T20:20:00;3.77;;;2.40;;
15915;SDS011;8057;47.830;-3.870;2023-04-25T20:24:18;5.33;;;2.50;;
15915;SDS011;8057;47.830;-3.870;2023-04-25T20:28:45;4.50;;;2.40;;
15915;SDS011;8057;47.830;-3.870;2023-04-25T20:51:19;4.00;;;3.03;;
15915;SDS011;8057;47.830;-3.870;2023-04-25T20:55:47;4.93;;;3.57;;
15915;SDS011;8057;47.830;-3.870;2023-04-25T21:00:15;7.27;;;3.77;;
15915;SDS011;8057;47.830;-3.870;2023-04-25T21:09:17;5.47;;;3.70;;
15915;SDS011;8057;47.830;-3.870;2023-04-25T21:13:30;8.27;;;4.20;;
15915;SDS011;8057;47.830;-3.870;2023-04-25T21:17:41;5.93;;;3.57;;
15915;SDS011;8057;47.830;-3.870;2023-04-25T21:22:03;5.83;;;3.23;;
15915;SDS011;8057;47.830;-3.870;2023-04-25T21:26:19;7.93;;;3.90;;
15915;SDS011;8057;47.830;-3.870;2023-04-25T21:30:40;5.70;;;3.50;;
15915;SDS011;8057;47.830;-3.870;2023-04-25T21:34:52;4.80;;;3.40;;
15915;SDS011;8057;47.830;-3.870;2023-04-25T21:39:21;6.13;;;3.20;;
15915;SDS011;8057;47.830;-3.870;2023-04-25T21:48:10;7.00;;;3.57;;
15915;SDS011;8057;47.830;-3.870;2023-04-25T21:52:20;5.97;;;3.43;;
15915;SDS011;8057;47.830;-3.870;2023-04-25T21:56:30;6.43;;;3.63;;
15915;SDS011;8057;47.830;-3.870;2023-04-25T22:00:42;7.17;;;3.80;;
15915;SDS011;8057;47.830;-3.870;2023-04-25T22:04:52;5.63;;;3.97;;
15915;SDS011;8057;47.830;-3.870;2023-04-25T22:09:03;6.97;;;4.63;;
15915;SDS011;8057;47.830;-3.870;2023-04-25T22:13:12;9.13;;;3.77;;
15915;SDS011;8057;47.830;-3.870;2023-04-25T22:17:24;7.03;;;3.90;;
15915;SDS011;8057;47.830;-3.870;2023-04-25T22:21:34;7.27;;;3.80;;
15915;SDS011;8057;47.830;-3.870;2023-04-25T22:25:45;6.83;;;3.97;;
15915;SDS011;8057;47.830;-3.870;2023-04-25T22:29:56;8.40;;;4.30;;
15915;SDS011;8057;47.830;-3.870;2023-04-25T22:38:28;8.97;;;4.80;;
15915;SDS011;8057;47.830;-3.870;2023-04-25T22:53:05;7.80;;;4.87;;
15915;SDS011;8057;47.830;-3.870;2023-04-25T23:01:53;8.33;;;5.07;;
15915;SDS011;8057;47.830;-3.870;2023-04-25T23:06:19;10.87;;;5.10;;
15915;SDS011;8057;47.830;-3.870;2023-04-25T23:11:12;8.77;;;4.67;;
15915;SDS011;8057;47.830;-3.870;2023-04-25T23:36:29;10.27;;;5.77;;
15915;SDS011;8057;47.830;-3.870;2023-04-25T23:41:37;5.77;;;4.90;;
15915;SDS011;8057;47.830;-3.870;2023-04-25T23:46:32;7.00;;;5.27;;
15915;SDS011;8057;47.830;-3.870;2023-04-25T23:51:21;8.07;;;4.93;;
15915;SDS011;8057;47.830;-3.870;2023-04-25T23:55:45;7.53;;;4.93;;
